createdAt,value
2019-02-23T00:01:56.218Z,3.38
2019-02-23T00:04:26.905Z,3.36
2019-02-23T00:07:03.298Z,3.35
2019-02-23T00:09:34.258Z,3.30
2019-02-23T00:12:05.398Z,3.27
2019-02-23T00:14:38.412Z,3.38
2019-02-23T00:17:11.377Z,3.45
2019-02-23T00:19:47.437Z,3.45
2019-02-23T00:22:20.374Z,3.49
2019-02-23T00:24:53.202Z,3.50
2019-02-23T00:27:23.869Z,3.44
2019-02-23T00:29:54.723Z,3.35
2019-02-23T00:32:30.021Z,3.33
2019-02-23T00:35:05.760Z,3.34
2019-02-23T00:37:36.729Z,3.31
2019-02-23T00:40:07.220Z,3.20
2019-02-23T00:42:37.883Z,3.12
2019-02-23T00:45:08.342Z,3.09
2019-02-23T00:47:40.771Z,3.13
2019-02-23T00:50:15.017Z,3.18
2019-02-23T00:52:45.393Z,3.31
2019-02-23T00:55:15.827Z,3.39
2019-02-23T00:57:50.925Z,3.30
2019-02-23T01:00:21.635Z,3.24
2019-02-23T01:02:52.387Z,3.35
2019-02-23T01:05:23.341Z,3.43
2019-02-23T01:07:54.411Z,3.39
2019-02-23T01:10:26.806Z,3.27
2019-02-23T01:12:57.263Z,3.27
2019-02-23T01:15:27.899Z,3.30
2019-02-23T01:17:58.716Z,3.44
2019-02-23T01:20:29.200Z,3.54
2019-02-23T01:23:02.744Z,3.54
2019-02-23T01:25:34.786Z,3.35
2019-02-23T01:28:05.865Z,3.25
2019-02-23T01:30:36.316Z,3.16
2019-02-23T01:33:06.740Z,3.16
2019-02-23T01:35:39.584Z,3.25
2019-02-23T01:38:10.418Z,3.27
2019-02-23T01:40:43.089Z,3.20
2019-02-23T01:43:15.410Z,3.16
2019-02-23T01:45:45.866Z,3.18
2019-02-23T01:48:21.300Z,3.08
2019-02-23T01:50:54.176Z,3.02
2019-02-23T01:53:24.674Z,3.00
2019-02-23T01:55:55.253Z,3.05
2019-02-23T01:58:28.550Z,2.99
2019-02-23T02:00:58.958Z,2.94
2019-02-23T02:03:29.286Z,2.92
2019-02-23T02:06:00.031Z,2.93
2019-02-23T02:08:30.631Z,2.94
2019-02-23T02:11:01.088Z,3.00
2019-02-23T02:13:31.476Z,3.10
2019-02-23T02:16:02.238Z,3.19
2019-02-23T02:18:34.222Z,3.14
2019-02-23T02:21:04.703Z,3.03
2019-02-23T02:23:35.138Z,2.99
2019-02-23T02:26:05.654Z,3.03
2019-02-23T02:28:36.077Z,3.13
2019-02-23T02:31:07.892Z,3.14
2019-02-23T02:34:18.382Z,3.08
2019-02-23T02:36:49.054Z,3.01
2019-02-23T02:39:20.008Z,2.95
2019-02-23T02:41:50.323Z,2.75
2019-02-23T02:44:20.868Z,2.66
2019-02-23T02:46:51.286Z,2.56
2019-02-23T02:49:21.819Z,2.48
2019-02-23T02:51:53.250Z,2.39
2019-02-23T02:54:23.966Z,2.26
2019-02-23T02:56:54.365Z,2.21
2019-02-23T02:59:24.810Z,2.20
2019-02-23T03:01:55.585Z,2.19
2019-02-23T03:04:26.180Z,2.18
2019-02-23T03:06:57.337Z,2.14
2019-02-23T03:09:28.184Z,2.11
2019-02-23T03:11:59.113Z,2.11
2019-02-23T03:14:31.391Z,2.06
2019-02-23T03:17:01.740Z,2.01
2019-02-23T03:19:32.167Z,1.91
2019-02-23T03:22:02.577Z,1.89
2019-02-23T03:24:33.058Z,1.88
2019-02-23T03:27:03.851Z,1.88
2019-02-23T03:29:34.587Z,1.92
2019-02-23T03:32:05.292Z,1.95
2019-02-23T03:34:35.940Z,1.90
2019-02-23T03:37:07.473Z,2.02
2019-02-23T03:39:38.017Z,2.13
2019-02-23T03:42:08.451Z,2.13
2019-02-23T03:44:38.991Z,2.14
2019-02-23T03:47:09.413Z,2.19
2019-02-23T03:49:39.904Z,2.28
2019-02-23T03:52:10.267Z,2.26
2019-02-23T03:54:40.996Z,2.22
2019-02-23T03:57:11.368Z,2.25
2019-02-23T03:59:41.764Z,2.19
2019-02-23T04:02:12.153Z,2.01
2019-02-23T04:04:42.567Z,1.82
2019-02-23T04:07:13.003Z,1.74
2019-02-23T04:09:43.510Z,1.69
2019-02-23T04:12:14.038Z,1.61
2019-02-23T04:14:44.850Z,1.59
2019-02-23T04:17:15.241Z,1.64
2019-02-23T04:19:45.664Z,1.64
2019-02-23T04:22:16.484Z,1.72
2019-02-23T04:24:46.822Z,1.81
2019-02-23T04:27:17.562Z,1.85
2019-02-23T04:29:48.408Z,1.87
2019-02-23T04:32:18.799Z,1.93
2019-02-23T04:34:49.322Z,1.95
2019-02-23T04:37:20.224Z,1.94
2019-02-23T04:39:50.882Z,1.90
2019-02-23T04:42:21.349Z,1.74
2019-02-23T04:44:52.233Z,1.64
2019-02-23T04:47:22.718Z,1.57
2019-02-23T04:49:56.159Z,1.47
2019-02-23T04:52:27.847Z,1.46
2019-02-23T04:54:58.280Z,1.44
2019-02-23T04:57:28.974Z,1.48
2019-02-23T04:59:59.356Z,1.51
2019-02-23T05:02:31.883Z,1.50
2019-02-23T05:05:05.761Z,1.51
2019-02-23T05:07:36.268Z,1.58
2019-02-23T05:10:07.394Z,1.51
2019-02-23T05:12:37.993Z,1.48
2019-02-23T05:15:10.116Z,1.41
2019-02-23T05:17:41.025Z,1.35
2019-02-23T05:20:11.451Z,1.37
2019-02-23T05:22:42.182Z,1.38
2019-02-23T05:25:14.128Z,1.40
2019-02-23T05:27:46.105Z,1.33
2019-02-23T05:30:20.025Z,1.41
2019-02-23T05:32:50.497Z,1.42
2019-02-23T05:35:21.014Z,1.46
2019-02-23T05:37:51.500Z,1.53
2019-02-23T05:40:22.260Z,1.56
2019-02-23T05:43:01.004Z,1.58
2019-02-23T05:45:25.122Z,1.62
2019-02-23T05:47:55.506Z,1.63
2019-02-23T05:50:25.886Z,1.63
2019-02-23T05:52:56.619Z,1.70
2019-02-23T05:55:27.033Z,1.72
2019-02-23T05:57:57.729Z,1.72
2019-02-23T06:00:28.914Z,1.68
2019-02-23T06:03:01.119Z,1.54
2019-02-23T06:05:31.925Z,1.46
2019-02-23T06:08:02.341Z,1.45
2019-02-23T06:10:32.732Z,1.44
2019-02-23T06:13:03.407Z,1.53
2019-02-23T06:15:33.849Z,1.53
2019-02-23T06:18:04.503Z,1.55
2019-02-23T06:20:35.134Z,1.53
2019-02-23T06:23:05.981Z,1.52
2019-02-23T06:25:37.505Z,1.62
2019-02-23T06:28:07.990Z,1.77
2019-02-23T06:30:39.177Z,1.94
2019-02-23T06:33:10.440Z,2.12
2019-02-23T06:35:40.772Z,2.22
2019-02-23T06:38:12.472Z,2.23
2019-02-23T06:40:42.966Z,2.22
2019-02-23T06:43:13.367Z,2.24
2019-02-23T06:45:43.777Z,2.25
2019-02-23T06:48:14.202Z,2.29
2019-02-23T06:50:44.830Z,2.30
2019-02-23T06:53:15.251Z,2.31
2019-02-23T06:55:45.639Z,2.28
2019-02-23T06:58:16.373Z,2.28
2019-02-23T07:00:48.007Z,2.29
2019-02-23T07:03:22.053Z,2.25
2019-02-23T07:05:52.686Z,2.18
2019-02-23T07:08:23.365Z,2.20
2019-02-23T07:10:54.010Z,2.27
2019-02-23T07:13:24.396Z,2.36
2019-02-23T07:15:54.870Z,2.54
2019-02-23T07:18:25.633Z,2.64
2019-02-23T07:20:55.990Z,2.69
2019-02-23T07:23:26.511Z,2.74
2019-02-23T07:25:56.960Z,2.67
2019-02-23T07:28:28.698Z,2.69
2019-02-23T07:30:59.142Z,2.75
2019-02-23T07:33:33.141Z,2.71
2019-02-23T07:36:01.917Z,2.71
2019-02-23T07:38:32.322Z,2.68
2019-02-23T07:41:09.940Z,2.62
2019-02-23T07:43:40.882Z,2.51
2019-02-23T07:46:11.334Z,2.49
2019-02-23T07:48:41.722Z,2.65
2019-02-23T07:51:12.246Z,2.68
2019-02-23T07:53:43.075Z,2.76
2019-02-23T07:56:13.573Z,2.84
2019-02-23T07:58:44.067Z,2.85
2019-02-23T08:01:14.887Z,2.84
2019-02-23T08:03:48.501Z,2.94
2019-02-23T08:06:27.046Z,3.10
2019-02-23T08:08:57.643Z,3.17
2019-02-23T08:11:29.255Z,3.25
2019-02-23T08:13:59.640Z,3.37
2019-02-23T08:16:31.841Z,3.58
2019-02-23T08:19:08.333Z,3.70
2019-02-23T08:21:45.618Z,3.80
2019-02-23T08:24:19.339Z,3.84
2019-02-23T08:26:49.879Z,3.78
2019-02-23T08:29:20.410Z,3.63
2019-02-23T08:31:54.070Z,3.66
2019-02-23T08:34:28.060Z,3.67
2019-02-23T08:36:58.443Z,3.83
2019-02-23T08:39:28.844Z,3.82
2019-02-23T08:42:01.737Z,3.86
2019-02-23T08:44:33.280Z,3.98
2019-02-23T08:47:03.662Z,4.15
2019-02-23T08:49:34.754Z,4.31
2019-02-23T08:52:10.187Z,4.57
2019-02-23T08:54:40.588Z,4.88
2019-02-23T08:57:14.557Z,5.08
2019-02-23T08:59:45.061Z,5.02
2019-02-23T09:02:16.641Z,4.98
2019-02-23T09:04:49.176Z,5.10
2019-02-23T09:07:23.225Z,5.24
2019-02-23T09:09:53.863Z,5.45
2019-02-23T09:12:24.597Z,5.63
2019-02-23T09:14:55.409Z,5.85
2019-02-23T09:17:32.528Z,5.89
2019-02-23T09:20:03.159Z,6.00
2019-02-23T09:22:33.980Z,6.09
2019-02-23T09:25:04.967Z,6.17
2019-02-23T09:27:35.298Z,6.28
2019-02-23T09:30:06.113Z,6.34
2019-02-23T09:32:36.435Z,6.39
2019-02-23T09:35:07.155Z,6.44
2019-02-23T09:37:37.548Z,6.55
2019-02-23T09:40:10.031Z,6.56
2019-02-23T09:42:42.867Z,6.69
2019-02-23T09:45:13.472Z,6.79
2019-02-23T09:47:43.821Z,6.88
2019-02-23T09:50:14.190Z,6.77
2019-02-23T09:52:44.607Z,6.90
2019-02-23T09:55:15.248Z,7.07
2019-02-23T09:57:45.645Z,7.07
2019-02-23T10:00:16.074Z,7.18
2019-02-23T10:02:46.566Z,7.22
2019-02-23T10:05:16.965Z,7.19
2019-02-23T10:07:47.373Z,7.16
2019-02-23T10:10:17.758Z,7.28
2019-02-23T10:12:48.299Z,7.41
2019-02-23T10:15:18.969Z,7.29
2019-02-23T10:17:50.807Z,7.28
2019-02-23T10:20:21.066Z,7.42
2019-02-23T10:22:51.409Z,7.47
2019-02-23T10:25:21.845Z,7.51
2019-02-23T10:27:52.590Z,7.55
2019-02-23T10:30:46.629Z,7.56
2019-02-23T10:33:19.272Z,7.53
2019-02-23T10:35:49.906Z,7.55
2019-02-23T10:38:22.011Z,7.60
2019-02-23T10:40:52.321Z,7.57
2019-02-23T10:43:22.717Z,7.72
2019-02-23T10:45:53.050Z,7.88
2019-02-23T10:48:25.340Z,7.88
2019-02-23T10:50:55.714Z,7.90
2019-02-23T10:53:32.739Z,7.85
2019-02-23T10:56:00.744Z,7.93
2019-02-23T10:58:32.561Z,7.94
2019-02-23T11:01:03.084Z,8.05
2019-02-23T11:03:33.506Z,8.21
2019-02-23T11:06:04.062Z,8.38
2019-02-23T11:08:34.465Z,8.54
2019-02-23T11:11:05.193Z,8.63
2019-02-23T11:13:35.865Z,8.79
2019-02-23T11:16:06.675Z,8.72
2019-02-23T11:18:37.140Z,8.73
2019-02-23T11:21:07.756Z,8.85
2019-02-23T11:23:44.322Z,8.82
2019-02-23T11:26:10.387Z,8.68
2019-02-23T11:28:41.358Z,8.55
2019-02-23T11:31:20.017Z,8.78
2019-02-23T11:33:56.646Z,9.18
2019-02-23T11:36:27.454Z,9.46
2019-02-23T11:38:57.910Z,9.67
2019-02-23T11:41:28.258Z,9.73
2019-02-23T11:43:58.550Z,9.67
2019-02-23T11:46:30.771Z,9.57
2019-02-23T11:49:02.317Z,9.50
2019-02-23T11:51:33.990Z,9.48
2019-02-23T11:54:22.087Z,9.50
2019-02-23T11:56:57.491Z,9.43
2019-02-23T11:59:31.021Z,9.56
2019-02-23T12:02:01.473Z,9.73
2019-02-23T12:04:33.347Z,9.70
2019-02-23T12:07:03.781Z,9.75
2019-02-23T12:09:34.123Z,9.95
2019-02-23T12:12:04.652Z,9.84
2019-02-23T12:14:35.746Z,9.72
2019-02-23T12:17:08.566Z,9.76
2019-02-23T12:19:41.430Z,9.48
2019-02-23T12:22:12.692Z,9.50
2019-02-23T12:25:00.867Z,9.77
2019-02-23T12:27:37.671Z,9.80
2019-02-23T12:30:08.308Z,9.84
2019-02-23T12:32:38.707Z,9.73
2019-02-23T12:35:09.818Z,9.81
2019-02-23T12:37:40.140Z,9.80
2019-02-23T12:40:11.917Z,9.99
2019-02-23T12:42:42.921Z,10.08
2019-02-23T12:45:15.394Z,10.16
2019-02-23T12:47:45.982Z,10.29
2019-02-23T12:50:24.607Z,10.24
2019-02-23T12:53:00.160Z,10.18
2019-02-23T12:55:34.899Z,10.33
2019-02-23T12:58:10.710Z,10.55
2019-02-23T13:00:47.275Z,10.86
2019-02-23T13:03:20.872Z,10.78
2019-02-23T13:05:51.275Z,10.58
2019-02-23T13:08:21.651Z,10.52
2019-02-23T13:10:58.041Z,10.72
2019-02-23T13:14:13.291Z,10.77
2019-02-23T13:17:36.267Z,10.49
2019-02-23T13:20:56.133Z,10.24
2019-02-23T13:24:32.619Z,10.01
2019-02-23T13:27:38.420Z,10.03
2019-02-23T13:30:45.752Z,10.25
2019-02-23T13:34:20.687Z,10.21
2019-02-23T13:37:42.662Z,10.26
2019-02-23T13:41:10.578Z,10.47
2019-02-23T13:44:47.097Z,10.33
2019-02-23T13:48:07.759Z,9.79
2019-02-23T13:51:17.050Z,9.64
2019-02-23T13:54:55.138Z,9.67
2019-02-23T13:58:03.731Z,9.91
2019-02-23T14:01:37.399Z,10.21
2019-02-23T14:05:26.011Z,10.36
2019-02-23T14:08:53.036Z,10.15
2019-02-23T14:11:55.013Z,10.06
2019-02-23T14:15:32.120Z,10.25
2019-02-23T14:18:57.088Z,10.35
2019-02-23T14:22:10.765Z,10.20
2019-02-23T14:25:24.111Z,10.07
2019-02-23T14:28:40.181Z,10.10
2019-02-23T14:31:46.881Z,10.10
2019-02-23T14:35:27.662Z,10.07
2019-02-23T14:38:50.458Z,9.68
2019-02-23T14:42:33.206Z,9.43
2019-02-23T14:45:41.957Z,9.26
2019-02-23T14:49:30.463Z,9.31
2019-02-23T14:52:55.119Z,9.35
2019-02-23T14:56:17.634Z,9.46
2019-02-23T14:59:32.386Z,9.58
2019-02-23T15:03:22.058Z,9.39
2019-02-23T15:07:07.636Z,9.26
2019-02-23T15:10:21.555Z,9.32
2019-02-23T15:13:48.107Z,9.13
2019-02-23T15:17:26.847Z,9.16
2019-02-23T15:21:02.578Z,9.06
2019-02-23T15:24:37.047Z,8.97
2019-02-23T15:27:53.525Z,8.76
2019-02-23T15:30:58.807Z,8.67
2019-02-23T15:34:59.694Z,8.66
2019-02-23T15:37:50.105Z,8.82
2019-02-23T15:41:15.994Z,8.98
2019-02-23T15:44:30.040Z,8.80
2019-02-23T15:47:40.831Z,8.66
2019-02-23T15:50:26.698Z,8.52
2019-02-23T15:52:59.641Z,8.46
2019-02-23T15:55:30.152Z,8.42
2019-02-23T15:58:00.492Z,8.40
2019-02-23T16:00:37.647Z,8.40
2019-02-23T16:03:10.067Z,8.28
2019-02-23T16:05:42.874Z,8.16
2019-02-23T16:08:13.770Z,8.16
2019-02-23T16:10:47.380Z,8.17
2019-02-23T16:13:18.054Z,8.16
2019-02-23T16:15:48.538Z,8.07
2019-02-23T16:18:18.986Z,7.90
2019-02-23T16:20:50.374Z,7.81
2019-02-23T16:23:34.698Z,7.75
2019-02-23T16:25:54.852Z,7.65
2019-02-23T16:28:25.955Z,7.59
2019-02-23T16:30:57.635Z,7.56
2019-02-23T16:33:27.979Z,7.52
2019-02-23T16:35:58.937Z,7.52
2019-02-23T16:38:31.458Z,7.41
2019-02-23T16:41:01.816Z,7.34
2019-02-23T16:43:35.175Z,7.29
2019-02-23T16:46:06.112Z,7.21
2019-02-23T16:48:41.347Z,7.12
2019-02-23T16:51:22.243Z,7.10
2019-02-23T16:54:20.643Z,7.10
2019-02-23T16:56:59.194Z,7.08
2019-02-23T16:59:37.901Z,7.15
2019-02-23T17:02:15.882Z,7.17
2019-02-23T17:04:53.586Z,7.19
2019-02-23T17:07:24.121Z,7.20
2019-02-23T17:10:26.363Z,7.19
2019-02-23T17:12:56.800Z,7.17
2019-02-23T17:15:27.824Z,7.11
2019-02-23T17:18:08.271Z,7.05
2019-02-23T17:20:41.312Z,6.94
2019-02-23T17:23:11.868Z,6.85
2019-02-23T17:25:42.318Z,6.86
2019-02-23T17:28:12.918Z,6.87
2019-02-23T17:30:43.267Z,6.88
2019-02-23T17:33:13.632Z,6.84
2019-02-23T17:35:43.997Z,6.76
2019-02-23T17:38:16.367Z,6.72
2019-02-23T17:40:46.654Z,6.75
2019-02-23T17:43:18.043Z,6.73
2019-02-23T17:45:48.462Z,6.74
2019-02-23T17:48:19.144Z,6.70
2019-02-23T17:50:50.795Z,6.59
2019-02-23T17:53:21.175Z,6.51
2019-02-23T17:55:51.549Z,6.45
2019-02-23T17:58:22.278Z,6.38
2019-02-23T18:00:52.661Z,6.30
2019-02-23T18:03:23.397Z,6.30
2019-02-23T18:05:56.617Z,6.35
2019-02-23T18:08:29.204Z,6.30
2019-02-23T18:11:00.540Z,6.25
2019-02-23T18:13:31.348Z,6.22
2019-02-23T18:16:02.015Z,6.12
2019-02-23T18:18:33.832Z,6.11
2019-02-23T18:21:04.426Z,6.12
2019-02-23T18:23:37.419Z,6.13
2019-02-23T18:26:07.912Z,6.10
2019-02-23T18:28:38.373Z,6.15
2019-02-23T18:31:09.073Z,6.19
2019-02-23T18:33:39.921Z,6.11
2019-02-23T18:36:10.681Z,6.09
2019-02-23T18:38:43.913Z,6.03
2019-02-23T18:41:14.255Z,5.99
2019-02-23T18:43:44.661Z,5.89
2019-02-23T18:46:15.146Z,5.82
2019-02-23T18:48:45.611Z,5.73
2019-02-23T18:51:15.964Z,5.62
2019-02-23T18:53:46.434Z,5.64
2019-02-23T18:56:18.146Z,5.65
2019-02-23T18:58:48.582Z,5.64
2019-02-23T19:01:19.017Z,5.65
2019-02-23T19:03:49.606Z,5.60
2019-02-23T19:06:20.026Z,5.55
2019-02-23T19:08:56.446Z,5.58
2019-02-23T19:11:27.159Z,5.61
2019-02-23T19:13:59.290Z,5.68
2019-02-23T19:16:29.963Z,5.74
2019-02-23T19:19:00.628Z,5.75
2019-02-23T19:21:31.024Z,5.72
2019-02-23T19:24:01.819Z,5.69
2019-02-23T19:26:38.218Z,5.66
2019-02-23T19:29:06.881Z,5.63
2019-02-23T19:31:38.710Z,5.57
2019-02-23T19:34:09.344Z,5.50
2019-02-23T19:36:39.862Z,5.45
2019-02-23T19:39:10.336Z,5.39
2019-02-23T19:41:40.745Z,5.34
2019-02-23T19:44:11.483Z,5.29
2019-02-23T19:46:48.766Z,5.29
2019-02-23T19:49:20.024Z,5.24
2019-02-23T19:51:50.429Z,5.30
2019-02-23T19:54:21.472Z,5.35
2019-02-23T19:56:51.949Z,5.29
2019-02-23T19:59:22.310Z,5.23
2019-02-23T20:01:52.674Z,5.18
2019-02-23T20:04:23.550Z,5.16
2019-02-23T20:06:54.011Z,5.15
2019-02-23T20:09:24.439Z,5.09
2019-02-23T20:11:54.927Z,5.08
2019-02-23T20:14:27.858Z,5.08
2019-02-23T20:16:58.312Z,5.08
2019-02-23T20:19:28.947Z,5.15
2019-02-23T20:21:59.448Z,5.18
2019-02-23T20:24:29.853Z,5.24
2019-02-23T20:27:00.271Z,5.27
2019-02-23T20:29:31.129Z,5.30
2019-02-23T20:32:01.797Z,5.28
2019-02-23T20:34:33.984Z,5.25
2019-02-23T20:37:04.331Z,5.24
2019-02-23T20:39:35.021Z,5.24
2019-02-23T20:42:05.501Z,5.24
2019-02-23T20:44:36.109Z,5.26
2019-02-23T20:47:07.136Z,5.27
2019-02-23T20:49:37.580Z,5.28
2019-02-23T20:52:08.071Z,5.26
2019-02-23T20:54:38.499Z,5.23
2019-02-23T20:57:14.006Z,5.23
2019-02-23T20:59:43.563Z,5.21
2019-02-23T21:02:14.148Z,5.23
2019-02-23T21:04:44.587Z,5.19
2019-02-23T21:07:25.833Z,5.12
2019-02-23T21:09:56.231Z,5.07
2019-02-23T21:12:26.726Z,5.06
2019-02-23T21:14:58.523Z,5.09
2019-02-23T21:17:28.948Z,5.10
2019-02-23T21:19:59.844Z,5.09
2019-02-23T21:22:30.418Z,5.09
2019-02-23T21:25:00.844Z,5.07
2019-02-23T21:27:31.207Z,5.08
2019-02-23T21:30:03.662Z,5.07
2019-02-23T21:32:33.725Z,5.08
2019-02-23T21:35:04.291Z,5.10
2019-02-23T21:37:34.783Z,5.10
2019-02-23T21:40:07.624Z,5.08
2019-02-23T21:42:38.046Z,5.07
2019-02-23T21:45:10.031Z,5.07
2019-02-23T21:47:40.638Z,5.07
2019-02-23T21:50:11.048Z,5.07
2019-02-23T21:52:41.532Z,5.05
2019-02-23T21:55:12.106Z,5.08
2019-02-23T21:57:44.070Z,5.08
2019-02-23T22:00:17.253Z,5.05
2019-02-23T22:02:49.638Z,5.06
2019-02-23T22:05:20.015Z,5.10
2019-02-23T22:07:53.549Z,5.12
2019-02-23T22:10:24.787Z,5.14
2019-02-23T22:12:55.333Z,5.17
2019-02-23T22:15:25.860Z,5.17
2019-02-23T22:17:56.283Z,5.20
2019-02-23T22:20:26.797Z,5.21
2019-02-23T22:22:57.444Z,5.22
2019-02-23T22:25:28.219Z,5.26
2019-02-23T22:27:58.555Z,5.28
2019-02-23T22:30:28.921Z,5.30
2019-02-23T22:32:59.390Z,5.31
2019-02-23T22:35:29.890Z,5.31
2019-02-23T22:38:00.402Z,5.31
2019-02-23T22:40:35.312Z,5.31
2019-02-23T22:43:05.704Z,5.31
2019-02-23T22:45:36.112Z,5.33
2019-02-23T22:48:06.990Z,5.31
2019-02-23T22:50:40.527Z,5.30
2019-02-23T22:53:10.950Z,5.29
2019-02-23T22:55:41.284Z,5.26
2019-02-23T22:58:30.980Z,5.24
2019-02-23T23:01:13.044Z,5.23
2019-02-23T23:03:51.149Z,5.19
2019-02-23T23:06:25.617Z,5.12
2019-02-23T23:09:01.318Z,5.10
2019-02-23T23:11:32.415Z,5.07
2019-02-23T23:14:02.882Z,5.06
2019-02-23T23:16:36.559Z,5.05
2019-02-23T23:19:06.911Z,5.06
2019-02-23T23:21:44.872Z,5.04
2019-02-23T23:24:15.244Z,5.05
2019-02-23T23:26:45.956Z,5.04
2019-02-23T23:29:20.065Z,5.02
2019-02-23T23:31:50.466Z,5.00
2019-02-23T23:34:24.167Z,4.99
2019-02-23T23:37:11.965Z,4.98
2019-02-23T23:39:44.540Z,4.97
2019-02-23T23:42:19.434Z,4.95
2019-02-23T23:44:52.906Z,4.93
2019-02-23T23:47:23.551Z,4.93
2019-02-23T23:49:55.948Z,4.93
2019-02-23T23:52:26.362Z,4.92
2019-02-23T23:55:11.853Z,4.91
2019-02-23T23:58:44.251Z,4.88
